createdAt,value
2023-04-26T00:00:30.589Z,94549.00
2023-04-26T00:01:30.609Z,94553.00
2023-04-26T00:02:30.839Z,94549.00
2023-04-26T00:03:30.784Z,94551.00
2023-04-26T00:04:30.928Z,94549.00
2023-04-26T00:05:30.837Z,94551.00
2023-04-26T00:06:30.865Z,94551.00
2023-04-26T00:07:30.927Z,94551.00
2023-04-26T00:08:30.921Z,94551.00
2023-04-26T00:09:30.990Z,94551.00
2023-04-26T00:10:30.970Z,94547.00
2023-04-26T00:11:30.995Z,94547.00
2023-04-26T00:12:31.020Z,94547.00
2023-04-26T00:13:31.092Z,94547.00
2023-04-26T00:14:31.100Z,94547.00
2023-04-26T00:15:31.182Z,94545.00
2023-04-26T00:17:34.795Z,94545.00
2023-04-26T00:18:34.732Z,94545.00
2023-04-26T00:19:34.724Z,94547.00
2023-04-26T00:20:34.734Z,94547.00
2023-04-26T00:21:34.707Z,94551.00
2023-04-26T00:22:34.684Z,94551.00
2023-04-26T00:23:34.696Z,94553.00
2023-04-26T00:24:34.668Z,94553.00
2023-04-26T00:25:34.673Z,94553.00
2023-04-26T00:26:34.663Z,94553.00
2023-04-26T00:27:34.670Z,94553.00
2023-04-26T00:28:34.645Z,94549.00
2023-04-26T00:29:34.644Z,94547.00
2023-04-26T00:30:34.634Z,94549.00
2023-04-26T00:31:34.680Z,94551.00
2023-04-26T00:32:34.672Z,94553.00
2023-04-26T00:33:34.604Z,94551.00
2023-04-26T00:34:34.597Z,94553.00
2023-04-26T00:35:34.587Z,94553.00
2023-04-26T00:36:34.582Z,94555.00
2023-04-26T00:37:34.621Z,94555.00
2023-04-26T00:38:34.560Z,94553.00
2023-04-26T00:39:34.552Z,94551.00
2023-04-26T00:40:34.556Z,94553.00
2023-04-26T00:41:34.563Z,94547.00
2023-04-26T00:42:34.552Z,94549.00
2023-04-26T00:43:34.542Z,94543.00
2023-04-26T00:44:34.786Z,94541.00
2023-04-26T00:45:34.588Z,94541.00
2023-04-26T00:46:34.521Z,94537.00
2023-04-26T00:47:34.520Z,94537.00
2023-04-26T00:48:34.545Z,94537.00
2023-04-26T00:49:34.555Z,94535.00
2023-04-26T00:50:34.536Z,94535.00
2023-04-26T00:51:34.560Z,94535.00
2023-04-26T00:52:34.593Z,94533.00
2023-04-26T00:53:34.644Z,94533.00
2023-04-26T00:54:34.671Z,94533.00
2023-04-26T00:55:34.759Z,94535.00
2023-04-26T00:56:34.753Z,94535.00
2023-04-26T00:57:34.760Z,94537.00
2023-04-26T00:58:34.848Z,94535.00
2023-04-26T00:59:34.830Z,94535.00
2023-04-26T01:00:34.832Z,94537.00
2023-04-26T01:01:34.955Z,94533.00
2023-04-26T01:02:35.052Z,94531.00
2023-04-26T01:03:35.049Z,94531.00
2023-04-26T01:04:35.018Z,94535.00
2023-04-26T01:05:34.921Z,94533.00
2023-04-26T01:06:34.939Z,94535.00
2023-04-26T01:07:34.951Z,94537.00
2023-04-26T01:08:35.013Z,94537.00
2023-04-26T01:09:34.987Z,94539.00
2023-04-26T01:10:34.988Z,94537.00
2023-04-26T01:11:35.020Z,94535.00
2023-04-26T01:12:35.006Z,94535.00
2023-04-26T01:13:35.137Z,94530.00
2023-04-26T01:14:35.044Z,94531.00
2023-04-26T01:15:35.051Z,94530.00
2023-04-26T01:16:35.059Z,94530.00
2023-04-26T01:17:35.124Z,94531.00
2023-04-26T01:18:35.118Z,94533.00
2023-04-26T01:19:35.085Z,94531.00
2023-04-26T01:20:35.100Z,94535.00
2023-04-26T01:21:35.104Z,94535.00
2023-04-26T01:22:35.131Z,94533.00
2023-04-26T01:23:35.146Z,94531.00
2023-04-26T01:24:35.112Z,94533.00
2023-04-26T01:25:35.159Z,94533.00
2023-04-26T01:26:35.171Z,94533.00
2023-04-26T01:27:35.135Z,94531.00
2023-04-26T01:28:35.144Z,94531.00
2023-04-26T01:29:35.206Z,94531.00
2023-04-26T01:30:35.131Z,94533.00
2023-04-26T01:31:35.233Z,94533.00
2023-04-26T01:32:35.142Z,94535.00
2023-04-26T01:33:35.158Z,94537.00
2023-04-26T01:34:35.160Z,94537.00
2023-04-26T01:35:35.170Z,94535.00
2023-04-26T01:36:35.190Z,94539.00
2023-04-26T01:37:35.150Z,94537.00
2023-04-26T01:38:35.203Z,94537.00
2023-04-26T01:39:35.170Z,94539.00
2023-04-26T01:40:35.164Z,94539.00
2023-04-26T01:41:35.175Z,94539.00
2023-04-26T01:42:35.209Z,94539.00
2023-04-26T01:43:35.218Z,94541.00
2023-04-26T01:44:35.164Z,94543.00
2023-04-26T01:45:35.199Z,94543.00
2023-04-26T01:46:35.183Z,94541.00
2023-04-26T01:47:35.204Z,94543.00
2023-04-26T01:48:35.206Z,94545.00
2023-04-26T01:49:35.187Z,94545.00
2023-04-26T01:50:35.180Z,94545.00
2023-04-26T01:51:35.205Z,94545.00
2023-04-26T01:52:35.175Z,94545.00
2023-04-26T01:53:35.172Z,94545.00
2023-04-26T01:54:35.176Z,94545.00
2023-04-26T01:55:35.181Z,94547.00
2023-04-26T01:56:35.196Z,94547.00
2023-04-26T01:57:35.199Z,94547.00
2023-04-26T01:58:35.160Z,94545.00
2023-04-26T01:59:35.195Z,94545.00
2023-04-26T02:00:35.163Z,94547.00
2023-04-26T02:01:35.204Z,94547.00
2023-04-26T02:02:35.198Z,94549.00
2023-04-26T02:03:35.244Z,94549.00
2023-04-26T02:04:35.178Z,94549.00
2023-04-26T02:05:35.162Z,94549.00
2023-04-26T02:06:35.160Z,94549.00
2023-04-26T02:07:35.160Z,94551.00
2023-04-26T02:08:35.145Z,94553.00
2023-04-26T02:09:35.178Z,94553.00
2023-04-26T02:10:35.138Z,94553.00
2023-04-26T02:11:35.148Z,94551.00
2023-04-26T02:12:35.157Z,94553.00
2023-04-26T02:13:35.182Z,94551.00
2023-04-26T02:14:35.177Z,94551.00
2023-04-26T02:15:35.161Z,94551.00
2023-04-26T02:16:35.251Z,94547.00
2023-04-26T02:17:35.202Z,94547.00
2023-04-26T02:18:35.209Z,94547.00
2023-04-26T02:19:35.199Z,94545.00
2023-04-26T02:20:35.144Z,94541.00
2023-04-26T02:21:35.152Z,94541.00
2023-04-26T02:22:35.177Z,94541.00
2023-04-26T02:23:35.140Z,94541.00
2023-04-26T02:24:35.188Z,94539.00
2023-04-26T02:25:35.133Z,94539.00
2023-04-26T02:26:35.146Z,94539.00
2023-04-26T02:27:35.117Z,94537.00
2023-04-26T02:28:35.112Z,94537.00
2023-04-26T02:30:35.117Z,94537.00
2023-04-26T02:31:35.105Z,94537.00
2023-04-26T02:32:35.109Z,94537.00
2023-04-26T02:33:35.078Z,94537.00
2023-04-26T02:34:35.083Z,94537.00
2023-04-26T02:35:35.050Z,94537.00
2023-04-26T02:36:35.045Z,94539.00
2023-04-26T02:37:35.050Z,94539.00
2023-04-26T02:38:35.084Z,94537.00
2023-04-26T02:39:35.026Z,94535.00
2023-04-26T02:40:35.017Z,94531.00
2023-04-26T02:41:35.008Z,94531.00
2023-04-26T02:42:34.999Z,94531.00
2023-04-26T02:43:35.024Z,94533.00
2023-04-26T02:44:34.998Z,94533.00
2023-04-26T02:45:35.002Z,94537.00
2023-04-26T02:46:35.048Z,94535.00
2023-04-26T02:47:34.979Z,94533.00
2023-04-26T02:48:34.948Z,94539.00
2023-04-26T02:49:34.939Z,94535.00
2023-04-26T02:50:34.973Z,94535.00
2023-04-26T02:51:34.940Z,94537.00
2023-04-26T02:52:34.941Z,94539.00
2023-04-26T02:53:34.954Z,94539.00
2023-04-26T02:54:34.923Z,94537.00
2023-04-26T02:55:34.913Z,94539.00
2023-04-26T02:56:34.898Z,94537.00
2023-04-26T02:57:34.894Z,94533.00
2023-04-26T02:58:34.883Z,94531.00
2023-04-26T02:59:34.894Z,94528.00
2023-04-26T03:00:34.887Z,94528.00
2023-04-26T03:01:34.983Z,94530.00
2023-04-26T03:02:34.962Z,94526.00
2023-04-26T03:03:35.007Z,94526.00
2023-04-26T03:04:34.868Z,94526.00
2023-04-26T03:05:34.853Z,94526.00
2023-04-26T03:06:34.854Z,94528.00
2023-04-26T03:07:34.821Z,94530.00
2023-04-26T03:08:34.801Z,94530.00
2023-04-26T03:09:34.791Z,94528.00
2023-04-26T03:10:34.820Z,94526.00
2023-04-26T03:11:34.844Z,94524.00
2023-04-26T03:12:34.835Z,94526.00
2023-04-26T03:13:34.773Z,94524.00
2023-04-26T03:14:34.775Z,94526.00
2023-04-26T03:15:34.741Z,94526.00
2023-04-26T03:16:34.773Z,94528.00
2023-04-26T03:17:34.827Z,94528.00
2023-04-26T03:18:34.741Z,94528.00
2023-04-26T03:19:34.715Z,94526.00
2023-04-26T03:20:34.724Z,94528.00
2023-04-26T03:21:34.710Z,94530.00
2023-04-26T03:22:34.733Z,94531.00
2023-04-26T03:23:34.704Z,94531.00
2023-04-26T03:24:34.678Z,94531.00
2023-04-26T03:25:34.713Z,94531.00
2023-04-26T03:26:34.675Z,94531.00
2023-04-26T03:27:34.682Z,94531.00
2023-04-26T03:28:34.663Z,94533.00
2023-04-26T03:29:34.640Z,94533.00
2023-04-26T03:30:34.651Z,94533.00
2023-04-26T03:31:34.672Z,94533.00
2023-04-26T03:32:34.646Z,94530.00
2023-04-26T03:33:34.622Z,94528.00
2023-04-26T03:34:34.600Z,94530.00
2023-04-26T03:35:34.620Z,94528.00
2023-04-26T03:36:34.589Z,94528.00
2023-04-26T03:37:34.582Z,94530.00
2023-04-26T03:38:34.586Z,94530.00
2023-04-26T03:39:34.559Z,94531.00
2023-04-26T03:40:34.556Z,94535.00
2023-04-26T03:41:34.577Z,94535.00
2023-04-26T03:42:34.574Z,94535.00
2023-04-26T03:43:34.539Z,94535.00
2023-04-26T03:44:34.541Z,94533.00
2023-04-26T03:45:34.551Z,94533.00
2023-04-26T03:46:34.500Z,94533.00
2023-04-26T03:47:34.541Z,94533.00
2023-04-26T03:48:34.514Z,94535.00
2023-04-26T03:49:34.509Z,94535.00
2023-04-26T03:50:35.027Z,94533.00
2023-04-26T03:51:34.487Z,94535.00
2023-04-26T03:52:34.463Z,94537.00
2023-04-26T03:53:34.454Z,94537.00
2023-04-26T03:54:34.486Z,94539.00
2023-04-26T03:55:34.449Z,94541.00
2023-04-26T03:56:34.447Z,94541.00
2023-04-26T03:57:34.448Z,94541.00
2023-04-26T03:58:34.435Z,94541.00
2023-04-26T03:59:34.450Z,94545.00
2023-04-26T04:00:34.419Z,94543.00
2023-04-26T04:01:34.430Z,94547.00
2023-04-26T04:02:34.592Z,94549.00
2023-04-26T04:03:34.824Z,94549.00
2023-04-26T04:04:34.697Z,94551.00
2023-04-26T04:05:34.459Z,94549.00
2023-04-26T04:06:34.370Z,94551.00
2023-04-26T04:07:34.366Z,94551.00
2023-04-26T04:08:34.359Z,94551.00
2023-04-26T04:09:34.338Z,94551.00
2023-04-26T04:10:34.336Z,94553.00
2023-04-26T04:11:34.339Z,94553.00
2023-04-26T04:12:34.370Z,94551.00
2023-04-26T04:13:34.354Z,94551.00
2023-04-26T04:14:34.314Z,94553.00
2023-04-26T04:15:34.321Z,94555.00
2023-04-26T04:16:34.316Z,94555.00
2023-04-26T04:17:35.519Z,94555.00
2023-04-26T04:18:34.310Z,94553.00
2023-04-26T04:19:34.293Z,94553.00
2023-04-26T04:20:34.268Z,94555.00
2023-04-26T04:21:34.289Z,94555.00
2023-04-26T04:22:34.258Z,94555.00
2023-04-26T04:23:34.244Z,94555.00
2023-04-26T04:24:34.552Z,94553.00
2023-04-26T04:25:34.237Z,94553.00
2023-04-26T04:26:34.233Z,94555.00
2023-04-26T04:27:34.244Z,94557.00
2023-04-26T04:28:34.245Z,94561.00
2023-04-26T04:29:34.237Z,94559.00
2023-04-26T04:30:34.245Z,94565.00
2023-04-26T04:31:34.273Z,94567.00
2023-04-26T04:32:34.221Z,94563.00
2023-04-26T04:33:34.201Z,94565.00
2023-04-26T04:34:34.173Z,94567.00
2023-04-26T04:35:34.302Z,94567.00
2023-04-26T04:36:34.149Z,94567.00
2023-04-26T04:37:34.139Z,94567.00
2023-04-26T04:38:34.153Z,94571.00
2023-04-26T04:39:34.133Z,94571.00
2023-04-26T04:40:34.121Z,94567.00
2023-04-26T04:41:34.118Z,94571.00
2023-04-26T04:42:34.109Z,94573.00
2023-04-26T04:43:34.115Z,94573.00
2023-04-26T04:44:34.090Z,94575.00
2023-04-26T04:45:34.099Z,94573.00
2023-04-26T04:46:34.114Z,94577.00
2023-04-26T04:47:34.154Z,94577.00
2023-04-26T04:48:34.069Z,94577.00
2023-04-26T04:49:34.074Z,94583.00
2023-04-26T04:50:34.038Z,94583.00
2023-04-26T04:51:34.030Z,94581.00
2023-04-26T04:52:34.048Z,94583.00
2023-04-26T04:53:34.020Z,94583.00
2023-04-26T04:54:34.034Z,94586.00
2023-04-26T04:55:34.027Z,94590.00
2023-04-26T04:56:34.072Z,94592.00
2023-04-26T04:57:33.998Z,94588.00
2023-04-26T04:58:33.997Z,94590.00
2023-04-26T04:59:33.991Z,94592.00
2023-04-26T05:00:34.005Z,94590.00
2023-04-26T05:01:33.982Z,94594.00
2023-04-26T05:02:34.032Z,94596.00
2023-04-26T05:03:34.088Z,94596.00
2023-04-26T05:04:34.165Z,94596.00
2023-04-26T05:05:33.965Z,94596.00
2023-04-26T05:06:33.999Z,94598.00
2023-04-26T05:07:33.908Z,94598.00
2023-04-26T05:08:33.905Z,94598.00
2023-04-26T05:09:33.909Z,94596.00
2023-04-26T05:10:33.901Z,94598.00
2023-04-26T05:11:33.885Z,94598.00
2023-04-26T05:12:33.885Z,94598.00
2023-04-26T05:13:33.871Z,94600.00
2023-04-26T05:14:33.892Z,94600.00
2023-04-26T05:15:33.909Z,94602.00
2023-04-26T05:16:33.877Z,94600.00
2023-04-26T05:17:33.871Z,94602.00
2023-04-26T05:18:33.846Z,94602.00
2023-04-26T05:19:33.835Z,94602.00
2023-04-26T05:20:33.850Z,94602.00
2023-04-26T05:21:33.813Z,94602.00
2023-04-26T05:22:33.830Z,94604.00
2023-04-26T05:23:33.827Z,94604.00
2023-04-26T05:24:33.803Z,94604.00
2023-04-26T05:25:33.809Z,94602.00
2023-04-26T05:26:33.793Z,94604.00
2023-04-26T05:27:33.778Z,94602.00
2023-04-26T05:28:33.758Z,94604.00
2023-04-26T05:29:33.792Z,94604.00
2023-04-26T05:30:33.815Z,94604.00
2023-04-26T05:31:33.822Z,94608.00
2023-04-26T05:32:33.810Z,94612.00
2023-04-26T05:33:33.753Z,94614.00
2023-04-26T05:34:33.733Z,94612.00
2023-04-26T05:35:34.014Z,94612.00
2023-04-26T05:36:33.718Z,94610.00
2023-04-26T05:37:33.708Z,94614.00
2023-04-26T05:38:33.779Z,94614.00
2023-04-26T05:39:33.689Z,94612.00
2023-04-26T05:40:33.742Z,94610.00
2023-04-26T05:41:33.683Z,94610.00
2023-04-26T05:42:33.726Z,94612.00
2023-04-26T05:43:33.661Z,94612.00
2023-04-26T05:44:33.704Z,94612.00
2023-04-26T05:45:34.095Z,94618.00
2023-04-26T05:46:33.653Z,94618.00
2023-04-26T05:47:33.706Z,94618.00
2023-04-26T05:48:34.568Z,94616.00
2023-04-26T05:49:33.637Z,94614.00
2023-04-26T05:50:34.035Z,94616.00
2023-04-26T05:51:33.615Z,94614.00
2023-04-26T05:52:33.620Z,94616.00
2023-04-26T05:53:33.586Z,94618.00
2023-04-26T05:54:33.583Z,94620.00
2023-04-26T05:55:33.605Z,94620.00
2023-04-26T05:56:33.564Z,94618.00
2023-04-26T05:57:33.669Z,94622.00
2023-04-26T05:58:33.605Z,94622.00
2023-04-26T05:59:33.553Z,94622.00
2023-04-26T06:00:33.573Z,94624.00
2023-04-26T06:01:33.555Z,94633.00
2023-04-26T06:02:33.813Z,94633.00
2023-04-26T06:03:33.964Z,94631.00
2023-04-26T06:04:34.020Z,94633.00
2023-04-26T06:05:33.795Z,94624.00
2023-04-26T06:06:33.809Z,94620.00
2023-04-26T06:07:33.857Z,94622.00
2023-04-26T06:08:33.925Z,94624.00
2023-04-26T06:09:33.955Z,94624.00
2023-04-26T06:10:34.054Z,94631.00
2023-04-26T06:11:34.049Z,94631.00
2023-04-26T06:12:34.097Z,94635.00
2023-04-26T06:13:34.107Z,94635.00
2023-04-26T06:14:34.173Z,94635.00
2023-04-26T06:15:35.027Z,94635.00
2023-04-26T06:16:34.241Z,94637.00
2023-04-26T06:17:34.274Z,94637.00
2023-04-26T06:18:34.429Z,94637.00
2023-04-26T06:19:34.322Z,94639.00
2023-04-26T06:20:34.347Z,94637.00
2023-04-26T06:21:34.413Z,94639.00
2023-04-26T06:22:34.382Z,94639.00
2023-04-26T06:23:34.353Z,94637.00
2023-04-26T06:24:34.380Z,94635.00
2023-04-26T06:25:34.531Z,94635.00
2023-04-26T06:26:34.392Z,94641.00
2023-04-26T06:27:34.433Z,94635.00
2023-04-26T06:28:34.402Z,94635.00
2023-04-26T06:29:34.450Z,94639.00
2023-04-26T06:30:34.584Z,94637.00
2023-04-26T06:31:34.481Z,94637.00
2023-04-26T06:32:34.487Z,94635.00
2023-04-26T06:33:34.510Z,94635.00
2023-04-26T06:34:34.457Z,94635.00
2023-04-26T06:35:35.086Z,94635.00
2023-04-26T06:36:34.475Z,94637.00
2023-04-26T06:37:34.508Z,94635.00
2023-04-26T06:38:34.591Z,94635.00
2023-04-26T06:39:34.661Z,94637.00
2023-04-26T06:40:35.041Z,94639.00
2023-04-26T06:41:34.729Z,94637.00
2023-04-26T06:42:34.766Z,94637.00
2023-04-26T06:43:34.689Z,94639.00
2023-04-26T06:44:34.730Z,94639.00
2023-04-26T06:45:34.780Z,94639.00
2023-04-26T06:46:34.771Z,94641.00
2023-04-26T06:47:34.775Z,94637.00
2023-04-26T06:48:34.764Z,94637.00
2023-04-26T06:49:34.760Z,94635.00
2023-04-26T06:50:34.830Z,94637.00
2023-04-26T06:51:34.875Z,94637.00
2023-04-26T06:52:34.894Z,94637.00
2023-04-26T06:53:34.949Z,94637.00
2023-04-26T06:54:39.888Z,94635.00
2023-04-26T06:55:36.084Z,94639.00
2023-04-26T06:56:35.096Z,94637.00
2023-04-26T06:57:34.978Z,94633.00
2023-04-26T06:58:34.965Z,94633.00
2023-04-26T06:59:35.588Z,94635.00
2023-04-26T07:00:35.042Z,94624.00
2023-04-26T07:01:34.996Z,94624.00
2023-04-26T07:02:35.018Z,94624.00
2023-04-26T07:03:35.120Z,94624.00
2023-04-26T07:04:35.137Z,94622.00
2023-04-26T07:05:35.091Z,94622.00
2023-04-26T07:06:35.206Z,94620.00
2023-04-26T07:07:35.174Z,94624.00
2023-04-26T07:08:35.239Z,94622.00
2023-04-26T07:09:35.309Z,94620.00
2023-04-26T07:10:35.359Z,94622.00
2023-04-26T07:11:35.425Z,94622.00
2023-04-26T07:12:35.523Z,94624.00
2023-04-26T07:13:35.549Z,94622.00
2023-04-26T07:14:37.135Z,94631.00
2023-04-26T07:15:35.589Z,94631.00
2023-04-26T07:16:35.643Z,94624.00
2023-04-26T07:17:35.628Z,94622.00
2023-04-26T07:18:35.567Z,94622.00
2023-04-26T07:19:35.552Z,94620.00
2023-04-26T07:20:35.577Z,94622.00
2023-04-26T07:21:35.531Z,94620.00
2023-04-26T07:22:35.507Z,94618.00
2023-04-26T07:23:35.515Z,94616.00
2023-04-26T07:24:35.488Z,94616.00
2023-04-26T07:25:35.605Z,94616.00
2023-04-26T07:26:35.511Z,94616.00
2023-04-26T07:27:35.484Z,94614.00
2023-04-26T07:28:35.467Z,94612.00
2023-04-26T07:29:35.455Z,94606.00
2023-04-26T07:30:35.456Z,94608.00
2023-04-26T07:31:35.445Z,94610.00
2023-04-26T07:32:35.507Z,94614.00
2023-04-26T07:33:35.643Z,94614.00
2023-04-26T07:34:35.427Z,94614.00
2023-04-26T07:35:35.641Z,94616.00
2023-04-26T07:36:35.403Z,94616.00
2023-04-26T07:37:35.394Z,94616.00
2023-04-26T07:38:35.427Z,94614.00
2023-04-26T07:39:35.411Z,94614.00
2023-04-26T07:40:35.398Z,94608.00
2023-04-26T07:41:35.415Z,94612.00
2023-04-26T07:42:35.368Z,94610.00
2023-04-26T07:43:35.380Z,94608.00
2023-04-26T07:44:35.410Z,94608.00
2023-04-26T07:45:35.400Z,94610.00
2023-04-26T07:46:35.404Z,94606.00
2023-04-26T07:47:35.377Z,94604.00
2023-04-26T07:48:35.389Z,94604.00
2023-04-26T07:49:35.350Z,94606.00
2023-04-26T07:50:35.319Z,94606.00
2023-04-26T07:51:35.317Z,94602.00
2023-04-26T07:52:35.356Z,94606.00
2023-04-26T07:53:35.312Z,94606.00
2023-04-26T07:54:35.314Z,94606.00
2023-04-26T07:55:35.379Z,94610.00
2023-04-26T07:56:35.314Z,94610.00
2023-04-26T07:57:35.406Z,94604.00
2023-04-26T07:58:35.455Z,94604.00
2023-04-26T07:59:35.544Z,94604.00
2023-04-26T08:00:35.591Z,94606.00
2023-04-26T08:01:35.625Z,94604.00
2023-04-26T08:02:44.472Z,94608.00
2023-04-26T08:03:36.824Z,94608.00
2023-04-26T08:04:35.835Z,94608.00
2023-04-26T08:05:35.817Z,94608.00
2023-04-26T08:06:35.683Z,94608.00
2023-04-26T08:07:35.631Z,94608.00
2023-04-26T08:08:35.619Z,94602.00
2023-04-26T08:09:35.626Z,94604.00
2023-04-26T08:10:36.221Z,94604.00
2023-04-26T08:11:35.651Z,94602.00
2023-04-26T08:12:35.615Z,94602.00
2023-04-26T08:13:35.604Z,94598.00
2023-04-26T08:14:35.674Z,94598.00
2023-04-26T08:15:35.662Z,94594.00
2023-04-26T08:16:35.792Z,94594.00
2023-04-26T08:17:35.774Z,94594.00
2023-04-26T08:18:35.743Z,94594.00
2023-04-26T08:19:35.800Z,94594.00
2023-04-26T08:20:35.800Z,94592.00
2023-04-26T08:21:35.850Z,94592.00
2023-04-26T08:22:35.917Z,94592.00
2023-04-26T08:23:35.905Z,94588.00
2023-04-26T08:24:35.942Z,94586.00
2023-04-26T08:25:36.108Z,94585.00
2023-04-26T08:26:36.128Z,94583.00
2023-04-26T08:27:36.101Z,94583.00
2023-04-26T08:28:36.120Z,94583.00
2023-04-26T08:29:36.164Z,94583.00
2023-04-26T08:30:37.141Z,94585.00
2023-04-26T08:31:36.329Z,94581.00
2023-04-26T08:32:36.308Z,94583.00
2023-04-26T08:33:36.345Z,94585.00
2023-04-26T08:34:36.417Z,94579.00
2023-04-26T08:35:36.461Z,94581.00
2023-04-26T08:36:36.514Z,94583.00
2023-04-26T08:37:36.610Z,94583.00
2023-04-26T08:38:36.598Z,94583.00
2023-04-26T08:39:36.631Z,94583.00
2023-04-26T08:40:37.098Z,94579.00
2023-04-26T08:41:36.760Z,94581.00
2023-04-26T08:42:37.956Z,94575.00
2023-04-26T08:43:36.870Z,94575.00
2023-04-26T08:44:36.945Z,94577.00
2023-04-26T08:45:37.108Z,94579.00
2023-04-26T08:46:37.113Z,94579.00
2023-04-26T08:47:37.137Z,94577.00
2023-04-26T08:48:37.114Z,94579.00
2023-04-26T08:49:37.177Z,94577.00
2023-04-26T08:50:37.603Z,94571.00
2023-04-26T08:51:37.264Z,94571.00
2023-04-26T08:52:37.256Z,94571.00
2023-04-26T08:53:37.221Z,94571.00
2023-04-26T08:54:37.295Z,94567.00
2023-04-26T08:55:37.244Z,94563.00
2023-04-26T08:56:37.258Z,94565.00
2023-04-26T08:57:37.267Z,94567.00
2023-04-26T08:58:37.308Z,94567.00
2023-04-26T08:59:37.281Z,94569.00
2023-04-26T09:00:37.630Z,94565.00
2023-04-26T09:01:37.315Z,94565.00
2023-04-26T09:02:37.486Z,94565.00
2023-04-26T09:03:37.472Z,94561.00
2023-04-26T09:04:37.460Z,94561.00
2023-04-26T09:05:37.590Z,94559.00
2023-04-26T09:06:37.289Z,94557.00
2023-04-26T09:07:37.372Z,94559.00
2023-04-26T09:08:37.390Z,94557.00
2023-04-26T09:09:37.458Z,94557.00
2023-04-26T09:10:37.726Z,94557.00
2023-04-26T09:11:37.531Z,94553.00
2023-04-26T09:12:37.572Z,94557.00
2023-04-26T09:13:37.642Z,94553.00
2023-04-26T09:14:37.623Z,94551.00
2023-04-26T09:15:37.740Z,94549.00
2023-04-26T09:16:37.768Z,94551.00
2023-04-26T09:17:37.923Z,94547.00
2023-04-26T09:18:37.708Z,94545.00
2023-04-26T09:19:37.768Z,94543.00
2023-04-26T09:20:37.716Z,94545.00
2023-04-26T09:21:37.743Z,94545.00
2023-04-26T09:22:37.705Z,94543.00
2023-04-26T09:23:37.742Z,94535.00
2023-04-26T09:24:37.737Z,94537.00
2023-04-26T09:25:38.126Z,94537.00
2023-04-26T09:26:37.739Z,94539.00
2023-04-26T09:27:37.790Z,94535.00
2023-04-26T09:28:37.797Z,94535.00
2023-04-26T09:29:37.832Z,94535.00
2023-04-26T09:30:37.878Z,94531.00
2023-04-26T09:31:37.927Z,94535.00
2023-04-26T09:32:37.991Z,94531.00
2023-04-26T09:33:37.908Z,94533.00
2023-04-26T09:34:37.964Z,94531.00
2023-04-26T09:35:37.999Z,94535.00
2023-04-26T09:36:38.052Z,94530.00
2023-04-26T09:37:50.735Z,94528.00
2023-04-26T09:38:39.119Z,94526.00
2023-04-26T09:39:38.033Z,94526.00
2023-04-26T09:40:38.111Z,94524.00
2023-04-26T09:41:38.014Z,94522.00
2023-04-26T09:42:38.027Z,94524.00
2023-04-26T09:43:38.007Z,94520.00
2023-04-26T09:44:38.009Z,94518.00
2023-04-26T09:45:37.962Z,94518.00
2023-04-26T09:46:38.025Z,94516.00
2023-04-26T09:47:37.984Z,94514.00
2023-04-26T09:48:37.923Z,94512.00
2023-04-26T09:49:37.932Z,94510.00
2023-04-26T09:50:38.670Z,94508.00
2023-04-26T09:51:37.949Z,94506.00
2023-04-26T09:52:37.918Z,94506.00
2023-04-26T09:53:37.916Z,94506.00
2023-04-26T09:54:37.941Z,94508.00
2023-04-26T09:55:37.894Z,94508.00
2023-04-26T09:56:38.002Z,94506.00
2023-04-26T09:57:38.064Z,94504.00
2023-04-26T09:58:38.077Z,94506.00
2023-04-26T09:59:38.136Z,94500.00
2023-04-26T10:00:38.261Z,94496.00
2023-04-26T10:01:38.350Z,94496.00
2023-04-26T10:02:38.435Z,94496.00
2023-04-26T10:03:38.697Z,94494.00
2023-04-26T10:04:38.439Z,94492.00
2023-04-26T10:05:38.481Z,94494.00
2023-04-26T10:06:38.504Z,94492.00
2023-04-26T10:07:38.597Z,94494.00
2023-04-26T10:08:38.646Z,94494.00
2023-04-26T10:09:38.680Z,94492.00
2023-04-26T10:10:38.744Z,94492.00
2023-04-26T10:11:39.344Z,94490.00
2023-04-26T10:12:38.831Z,94490.00
2023-04-26T10:13:38.910Z,94492.00
2023-04-26T10:14:38.923Z,94488.00
2023-04-26T10:15:38.987Z,94488.00
2023-04-26T10:16:39.109Z,94484.00
2023-04-26T10:17:39.105Z,94481.00
2023-04-26T10:18:39.175Z,94481.00
2023-04-26T10:19:39.200Z,94479.00
2023-04-26T10:20:39.297Z,94477.00
2023-04-26T10:21:39.345Z,94471.00
2023-04-26T10:22:39.363Z,94473.00
2023-04-26T10:23:39.430Z,94473.00
2023-04-26T10:24:39.453Z,94475.00
2023-04-26T10:25:39.573Z,94475.00
2023-04-26T10:26:39.574Z,94475.00
2023-04-26T10:27:39.624Z,94473.00
2023-04-26T10:28:39.706Z,94471.00
2023-04-26T10:29:39.770Z,94465.00
2023-04-26T10:30:39.785Z,94463.00
2023-04-26T10:31:40.133Z,94465.00
2023-04-26T10:32:39.964Z,94461.00
2023-04-26T10:33:39.997Z,94461.00
2023-04-26T10:34:40.030Z,94459.00
2023-04-26T10:35:40.077Z,94463.00
2023-04-26T10:36:40.141Z,94459.00
2023-04-26T10:37:40.226Z,94457.00
2023-04-26T10:38:41.149Z,94459.00
2023-04-26T10:39:40.185Z,94453.00
2023-04-26T10:40:40.203Z,94453.00
2023-04-26T10:41:40.637Z,94457.00
2023-04-26T10:42:41.564Z,94457.00
2023-04-26T10:43:40.120Z,94453.00
2023-04-26T10:44:40.170Z,94451.00
2023-04-26T10:45:40.200Z,94447.00
2023-04-26T10:46:40.295Z,94441.00
2023-04-26T10:47:40.124Z,94435.00
2023-04-26T10:48:40.101Z,94437.00
2023-04-26T10:49:40.136Z,94435.00
2023-04-26T10:50:40.185Z,94433.00
2023-04-26T10:51:40.228Z,94428.00
2023-04-26T10:52:40.257Z,94426.00
2023-04-26T10:53:40.282Z,94426.00
2023-04-26T10:54:40.347Z,94424.00
2023-04-26T10:55:40.384Z,94420.00
2023-04-26T10:56:40.428Z,94426.00
2023-04-26T10:57:40.481Z,94424.00
2023-04-26T10:58:40.514Z,94422.00
2023-04-26T10:59:53.894Z,94420.00
2023-04-26T11:00:41.538Z,94420.00
2023-04-26T11:01:40.596Z,94418.00
2023-04-26T11:02:40.640Z,94416.00
2023-04-26T11:03:40.861Z,94416.00
2023-04-26T11:04:40.573Z,94416.00
2023-04-26T11:05:40.508Z,94414.00
2023-04-26T11:06:40.701Z,94416.00
2023-04-26T11:07:40.483Z,94416.00
2023-04-26T11:08:40.499Z,94414.00
2023-04-26T11:09:40.486Z,94412.00
2023-04-26T11:10:40.484Z,94410.00
2023-04-26T11:11:40.500Z,94410.00
2023-04-26T11:12:40.566Z,94410.00
2023-04-26T11:13:40.578Z,94410.00
2023-04-26T11:14:40.626Z,94410.00
2023-04-26T11:15:40.761Z,94410.00
2023-04-26T11:16:40.691Z,94408.00
2023-04-26T11:17:40.732Z,94404.00
2023-04-26T11:18:40.740Z,94402.00
2023-04-26T11:19:40.760Z,94400.00
2023-04-26T11:20:40.773Z,94402.00
2023-04-26T11:21:41.146Z,94396.00
2023-04-26T11:22:40.806Z,94394.00
2023-04-26T11:23:40.873Z,94390.00
2023-04-26T11:24:40.886Z,94390.00
2023-04-26T11:25:40.921Z,94388.00
2023-04-26T11:26:40.970Z,94388.00
2023-04-26T11:27:40.958Z,94386.00
2023-04-26T11:28:41.016Z,94386.00
2023-04-26T11:29:41.011Z,94382.00
2023-04-26T11:30:41.040Z,94379.00
2023-04-26T11:31:41.132Z,94377.00
2023-04-26T11:32:41.140Z,94377.00
2023-04-26T11:33:41.145Z,94379.00
2023-04-26T11:34:41.182Z,94377.00
2023-04-26T11:35:41.204Z,94379.00
2023-04-26T11:36:41.695Z,94382.00
2023-04-26T11:37:41.296Z,94379.00
2023-04-26T11:38:41.371Z,94381.00
2023-04-26T11:39:41.324Z,94379.00
2023-04-26T11:40:41.327Z,94377.00
2023-04-26T11:41:41.684Z,94377.00
2023-04-26T11:42:41.379Z,94377.00
2023-04-26T11:43:41.434Z,94375.00
2023-04-26T11:44:41.465Z,94375.00
2023-04-26T11:45:41.498Z,94365.00
2023-04-26T11:46:41.508Z,94363.00